sensor_id;sensor_type;location;lat;lon;timestamp;temperature;humidity
45339;DHT22;31071;51.478;5.710;2023-07-22T00:01:05;15.80;99.90
45339;DHT22;31071;51.478;5.710;2023-07-22T00:03:37;15.70;99.90
45339;DHT22;31071;51.478;5.710;2023-07-22T00:06:10;15.70;99.90
45339;DHT22;31071;51.478;5.710;2023-07-22T00:08:45;15.70;99.90
45339;DHT22;31071;51.478;5.710;2023-07-22T00:11:13;15.70;99.90
45339;DHT22;31071;51.478;5.710;2023-07-22T00:13:39;15.70;99.90
45339;DHT22;31071;51.478;5.710;2023-07-22T00:16:05;15.70;99.90
45339;DHT22;31071;51.478;5.710;2023-07-22T00:18:33;15.70;99.90
45339;DHT22;31071;51.478;5.710;2023-07-22T00:20:59;16.80;99.90
45339;DHT22;31071;51.478;5.710;2023-07-22T00:23:25;15.70;99.90
45339;DHT22;31071;51.478;5.710;2023-07-22T00:26:02;15.60;99.90
45339;DHT22;31071;51.478;5.710;2023-07-22T00:28:30;15.60;99.90
45339;DHT22;31071;51.478;5.710;2023-07-22T00:30:56;15.70;99.90
45339;DHT22;31071;51.478;5.710;2023-07-22T00:33:23;15.60;99.90
45339;DHT22;31071;51.478;5.710;2023-07-22T00:35:52;15.60;99.90
45339;DHT22;31071;51.478;5.710;2023-07-22T00:38:20;15.60;99.90
45339;DHT22;31071;51.478;5.710;2023-07-22T00:40:49;15.50;99.90
45339;DHT22;31071;51.478;5.710;2023-07-22T00:43:22;15.50;99.90
45339;DHT22;31071;51.478;5.710;2023-07-22T00:45:53;15.50;99.90
45339;DHT22;31071;51.478;5.710;2023-07-22T00:48:19;15.60;99.90
45339;DHT22;31071;51.478;5.710;2023-07-22T00:50:46;16.30;99.90
45339;DHT22;31071;51.478;5.710;2023-07-22T00:53:23;18.10;99.90
45339;DHT22;31071;51.478;5.710;2023-07-22T00:55:52;15.60;99.90
45339;DHT22;31071;51.478;5.710;2023-07-22T00:58:28;15.60;99.90
45339;DHT22;31071;51.478;5.710;2023-07-22T01:01:00;15.70;99.90
45339;DHT22;31071;51.478;5.710;2023-07-22T01:03:26;15.70;99.90
45339;DHT22;31071;51.478;5.710;2023-07-22T01:05:52;15.70;99.90
45339;DHT22;31071;51.478;5.710;2023-07-22T01:08:19;15.50;99.90
45339;DHT22;31071;51.478;5.710;2023-07-22T01:10:51;15.50;99.90
45339;DHT22;31071;51.478;5.710;2023-07-22T01:13:20;15.50;99.90
45339;DHT22;31071;51.478;5.710;2023-07-22T01:15:46;15.50;99.90
45339;DHT22;31071;51.478;5.710;2023-07-22T01:18:12;15.40;99.90
45339;DHT22;31071;51.478;5.710;2023-07-22T01:20:43;15.50;99.90
45339;DHT22;31071;51.478;5.710;2023-07-22T01:23:27;15.50;99.90
45339;DHT22;31071;51.478;5.710;2023-07-22T01:26:05;15.40;99.90
45339;DHT22;31071;51.478;5.710;2023-07-22T01:29:00;15.30;99.90
45339;DHT22;31071;51.478;5.710;2023-07-22T01:31:29;15.40;99.90
45339;DHT22;31071;51.478;5.710;2023-07-22T01:33:54;15.40;99.90
45339;DHT22;31071;51.478;5.710;2023-07-22T01:36:20;15.30;99.90
45339;DHT22;31071;51.478;5.710;2023-07-22T01:38:46;15.30;99.90
45339;DHT22;31071;51.478;5.710;2023-07-22T01:41:11;15.30;99.90
45339;DHT22;31071;51.478;5.710;2023-07-22T01:43:37;15.30;99.90
45339;DHT22;31071;51.478;5.710;2023-07-22T01:46:03;15.30;99.90
45339;DHT22;31071;51.478;5.710;2023-07-22T01:48:40;15.20;99.90
45339;DHT22;31071;51.478;5.710;2023-07-22T01:51:32;15.20;99.90
45339;DHT22;31071;51.478;5.710;2023-07-22T01:54:06;15.30;99.90
45339;DHT22;31071;51.478;5.710;2023-07-22T01:56:32;15.20;99.90
45339;DHT22;31071;51.478;5.710;2023-07-22T01:58:58;15.20;99.90
45339;DHT22;31071;51.478;5.710;2023-07-22T02:01:37;15.10;99.90
45339;DHT22;31071;51.478;5.710;2023-07-22T02:04:06;15.10;99.90
45339;DHT22;31071;51.478;5.710;2023-07-22T02:06:32;15.10;99.90
45339;DHT22;31071;51.478;5.710;2023-07-22T02:08:58;15.00;99.90
45339;DHT22;31071;51.478;5.710;2023-07-22T02:11:24;15.10;99.90
45339;DHT22;31071;51.478;5.710;2023-07-22T02:13:55;14.90;99.90
45339;DHT22;31071;51.478;5.710;2023-07-22T02:17:08;15.00;99.90
45339;DHT22;31071;51.478;5.710;2023-07-22T02:19:46;15.00;99.90
45339;DHT22;31071;51.478;5.710;2023-07-22T02:22:17;15.00;99.90
45339;DHT22;31071;51.478;5.710;2023-07-22T02:24:43;15.00;99.90
45339;DHT22;31071;51.478;5.710;2023-07-22T02:27:10;15.40;99.90
45339;DHT22;31071;51.478;5.710;2023-07-22T02:29:36;15.00;99.90
45339;DHT22;31071;51.478;5.710;2023-07-22T02:32:02;14.90;99.90
45339;DHT22;31071;51.478;5.710;2023-07-22T02:34:28;14.90;99.90
45339;DHT22;31071;51.478;5.710;2023-07-22T02:36:54;15.10;99.90
45339;DHT22;31071;51.478;5.710;2023-07-22T02:39:20;14.90;99.90
45339;DHT22;31071;51.478;5.710;2023-07-22T02:41:46;14.80;99.90
45339;DHT22;31071;51.478;5.710;2023-07-22T02:44:14;14.90;99.90
45339;DHT22;31071;51.478;5.710;2023-07-22T02:46:40;14.90;99.90
45339;DHT22;31071;51.478;5.710;2023-07-22T02:49:08;15.00;99.90
45339;DHT22;31071;51.478;5.710;2023-07-22T02:51:34;14.90;99.90
45339;DHT22;31071;51.478;5.710;2023-07-22T02:53:59;14.80;99.90
45339;DHT22;31071;51.478;5.710;2023-07-22T02:56:29;15.70;99.90
45339;DHT22;31071;51.478;5.710;2023-07-22T02:58:55;14.80;99.90
45339;DHT22;31071;51.478;5.710;2023-07-22T03:01:38;14.90;99.90
45339;DHT22;31071;51.478;5.710;2023-07-22T03:04:07;14.80;99.90
45339;DHT22;31071;51.478;5.710;2023-07-22T03:06:33;14.70;99.90
45339;DHT22;31071;51.478;5.710;2023-07-22T03:08:58;14.70;99.90
45339;DHT22;31071;51.478;5.710;2023-07-22T03:11:24;14.70;99.90
45339;DHT22;31071;51.478;5.710;2023-07-22T03:13:51;14.70;99.90
45339;DHT22;31071;51.478;5.710;2023-07-22T03:16:17;14.70;99.90
45339;DHT22;31071;51.478;5.710;2023-07-22T03:19:00;14.70;99.90
45339;DHT22;31071;51.478;5.710;2023-07-22T03:21:34;14.60;99.90
45339;DHT22;31071;51.478;5.710;2023-07-22T03:24:15;14.60;99.90
45339;DHT22;31071;51.478;5.710;2023-07-22T03:27:17;14.50;99.90
45339;DHT22;31071;51.478;5.710;2023-07-22T03:29:55;14.50;99.90
45339;DHT22;31071;51.478;5.710;2023-07-22T03:32:45;14.50;99.90
45339;DHT22;31071;51.478;5.710;2023-07-22T03:35:37;14.50;99.90
45339;DHT22;31071;51.478;5.710;2023-07-22T03:38:03;14.40;99.90
45339;DHT22;31071;51.478;5.710;2023-07-22T03:40:30;15.40;99.90
45339;DHT22;31071;51.478;5.710;2023-07-22T03:43:15;14.50;99.90
45339;DHT22;31071;51.478;5.710;2023-07-22T03:45:43;14.30;99.90
45339;DHT22;31071;51.478;5.710;2023-07-22T03:48:12;14.30;99.90
45339;DHT22;31071;51.478;5.710;2023-07-22T03:50:49;14.20;99.90
45339;DHT22;31071;51.478;5.710;2023-07-22T03:53:37;14.20;99.90
45339;DHT22;31071;51.478;5.710;2023-07-22T03:56:25;14.30;99.90
45339;DHT22;31071;51.478;5.710;2023-07-22T03:59:10;14.30;99.90
45339;DHT22;31071;51.478;5.710;2023-07-22T04:01:38;14.10;99.90
45339;DHT22;31071;51.478;5.710;2023-07-22T04:04:08;14.10;99.90
45339;DHT22;31071;51.478;5.710;2023-07-22T04:06:43;14.10;99.90
45339;DHT22;31071;51.478;5.710;2023-07-22T04:09:09;14.00;99.90
45339;DHT22;31071;51.478;5.710;2023-07-22T04:11:35;14.00;99.90
45339;DHT22;31071;51.478;5.710;2023-07-22T04:14:00;14.10;99.90
45339;DHT22;31071;51.478;5.710;2023-07-22T04:16:34;14.10;99.90
45339;DHT22;31071;51.478;5.710;2023-07-22T04:19:41;14.10;99.90
45339;DHT22;31071;51.478;5.710;2023-07-22T04:22:13;14.10;99.90
45339;DHT22;31071;51.478;5.710;2023-07-22T04:24:39;14.10;99.90
45339;DHT22;31071;51.478;5.710;2023-07-22T04:27:04;14.00;99.90
45339;DHT22;31071;51.478;5.710;2023-07-22T04:29:30;14.00;99.90
45339;DHT22;31071;51.478;5.710;2023-07-22T04:32:00;13.90;99.90
45339;DHT22;31071;51.478;5.710;2023-07-22T04:34:30;13.90;99.90
45339;DHT22;31071;51.478;5.710;2023-07-22T04:36:56;14.00;99.90
45339;DHT22;31071;51.478;5.710;2023-07-22T04:39:38;15.00;99.90
45339;DHT22;31071;51.478;5.710;2023-07-22T04:42:22;14.00;99.90
45339;DHT22;31071;51.478;5.710;2023-07-22T04:44:47;13.90;99.90
45339;DHT22;31071;51.478;5.710;2023-07-22T04:47:14;14.00;99.90
45339;DHT22;31071;51.478;5.710;2023-07-22T04:49:39;14.00;99.90
45339;DHT22;31071;51.478;5.710;2023-07-22T04:52:06;14.10;99.90
45339;DHT22;31071;51.478;5.710;2023-07-22T04:54:50;14.20;99.90
45339;DHT22;31071;51.478;5.710;2023-07-22T04:57:28;14.10;99.90
45339;DHT22;31071;51.478;5.710;2023-07-22T04:59:54;14.20;99.90
45339;DHT22;31071;51.478;5.710;2023-07-22T05:02:42;14.20;99.90
45339;DHT22;31071;51.478;5.710;2023-07-22T05:05:47;14.20;99.90
45339;DHT22;31071;51.478;5.710;2023-07-22T05:08:34;14.30;99.90
45339;DHT22;31071;51.478;5.710;2023-07-22T05:11:00;14.40;99.90
45339;DHT22;31071;51.478;5.710;2023-07-22T05:13:29;14.60;99.90
45339;DHT22;31071;51.478;5.710;2023-07-22T05:15:55;14.70;99.90
45339;DHT22;31071;51.478;5.710;2023-07-22T05:18:49;14.70;99.90
45339;DHT22;31071;51.478;5.710;2023-07-22T05:21:24;14.70;99.90
45339;DHT22;31071;51.478;5.710;2023-07-22T05:23:52;14.70;99.90
45339;DHT22;31071;51.478;5.710;2023-07-22T05:26:18;14.70;99.90
45339;DHT22;31071;51.478;5.710;2023-07-22T05:28:44;14.70;99.90
45339;DHT22;31071;51.478;5.710;2023-07-22T05:31:10;14.90;99.90
45339;DHT22;31071;51.478;5.710;2023-07-22T05:33:37;15.10;99.90
45339;DHT22;31071;51.478;5.710;2023-07-22T05:36:03;14.90;99.90
45339;DHT22;31071;51.478;5.710;2023-07-22T05:38:30;15.00;99.90
45339;DHT22;31071;51.478;5.710;2023-07-22T05:41:15;15.00;99.90
45339;DHT22;31071;51.478;5.710;2023-07-22T05:43:41;14.70;99.90
45339;DHT22;31071;51.478;5.710;2023-07-22T05:46:06;15.10;99.90
45339;DHT22;31071;51.478;5.710;2023-07-22T05:48:32;15.20;99.90
45339;DHT22;31071;51.478;5.710;2023-07-22T05:50:58;15.10;99.90
45339;DHT22;31071;51.478;5.710;2023-07-22T05:53:23;15.20;99.90
45339;DHT22;31071;51.478;5.710;2023-07-22T05:55:49;15.20;99.90
45339;DHT22;31071;51.478;5.710;2023-07-22T05:58:18;15.30;99.90
45339;DHT22;31071;51.478;5.710;2023-07-22T06:00:44;17.40;99.90
45339;DHT22;31071;51.478;5.710;2023-07-22T06:03:10;15.40;99.90
45339;DHT22;31071;51.478;5.710;2023-07-22T06:05:36;15.80;99.90
45339;DHT22;31071;51.478;5.710;2023-07-22T06:08:02;15.40;99.90
45339;DHT22;31071;51.478;5.710;2023-07-22T06:10:28;15.00;99.90
45339;DHT22;31071;51.478;5.710;2023-07-22T06:12:53;15.50;99.90
45339;DHT22;31071;51.478;5.710;2023-07-22T06:15:22;16.30;99.90
45339;DHT22;31071;51.478;5.710;2023-07-22T06:17:54;15.70;99.90
45339;DHT22;31071;51.478;5.710;2023-07-22T06:20:19;15.70;99.90
45339;DHT22;31071;51.478;5.710;2023-07-22T06:22:45;15.80;99.90
45339;DHT22;31071;51.478;5.710;2023-07-22T06:25:11;15.80;99.90
45339;DHT22;31071;51.478;5.710;2023-07-22T06:27:39;15.70;99.90
45339;DHT22;31071;51.478;5.710;2023-07-22T06:30:05;15.70;99.90
45339;DHT22;31071;51.478;5.710;2023-07-22T06:32:31;15.80;99.90
45339;DHT22;31071;51.478;5.710;2023-07-22T06:34:57;16.00;99.90
45339;DHT22;31071;51.478;5.710;2023-07-22T06:37:23;16.10;99.90
45339;DHT22;31071;51.478;5.710;2023-07-22T06:39:50;16.00;99.90
45339;DHT22;31071;51.478;5.710;2023-07-22T06:42:19;16.90;99.90
45339;DHT22;31071;51.478;5.710;2023-07-22T06:44:44;16.20;99.90
45339;DHT22;31071;51.478;5.710;2023-07-22T06:47:10;16.20;99.90
45339;DHT22;31071;51.478;5.710;2023-07-22T06:49:36;16.10;99.90
45339;DHT22;31071;51.478;5.710;2023-07-22T06:52:02;16.90;99.90
45339;DHT22;31071;51.478;5.710;2023-07-22T06:54:28;16.30;99.90
45339;DHT22;31071;51.478;5.710;2023-07-22T06:56:54;16.30;99.90
45339;DHT22;31071;51.478;5.710;2023-07-22T06:59:19;16.30;99.90
45339;DHT22;31071;51.478;5.710;2023-07-22T07:01:45;16.20;99.90
45339;DHT22;31071;51.478;5.710;2023-07-22T07:04:10;16.50;99.90
45339;DHT22;31071;51.478;5.710;2023-07-22T07:06:36;16.70;99.90
45339;DHT22;31071;51.478;5.710;2023-07-22T07:09:04;16.70;99.90
45339;DHT22;31071;51.478;5.710;2023-07-22T07:11:31;16.80;99.90
45339;DHT22;31071;51.478;5.710;2023-07-22T07:13:57;16.50;99.90
45339;DHT22;31071;51.478;5.710;2023-07-22T07:16:24;16.40;99.90
45339;DHT22;31071;51.478;5.710;2023-07-22T07:18:51;17.20;99.90
45339;DHT22;31071;51.478;5.710;2023-07-22T07:21:17;16.90;99.90
45339;DHT22;31071;51.478;5.710;2023-07-22T07:23:43;17.30;99.90
45339;DHT22;31071;51.478;5.710;2023-07-22T07:26:09;17.60;99.90
45339;DHT22;31071;51.478;5.710;2023-07-22T07:28:35;17.80;99.90
45339;DHT22;31071;51.478;5.710;2023-07-22T07:31:00;19.10;99.90
45339;DHT22;31071;51.478;5.710;2023-07-22T07:33:26;17.60;99.90
45339;DHT22;31071;51.478;5.710;2023-07-22T07:35:51;17.30;99.90
45339;DHT22;31071;51.478;5.710;2023-07-22T07:38:17;17.30;99.90
45339;DHT22;31071;51.478;5.710;2023-07-22T07:40:43;17.70;99.90
45339;DHT22;31071;51.478;5.710;2023-07-22T07:43:08;17.60;99.90
45339;DHT22;31071;51.478;5.710;2023-07-22T07:45:38;17.80;99.90
45339;DHT22;31071;51.478;5.710;2023-07-22T07:48:04;18.10;99.90
45339;DHT22;31071;51.478;5.710;2023-07-22T07:50:29;18.00;99.90
45339;DHT22;31071;51.478;5.710;2023-07-22T07:52:55;18.30;99.90
45339;DHT22;31071;51.478;5.710;2023-07-22T07:55:25;18.10;99.90
45339;DHT22;31071;51.478;5.710;2023-07-22T07:57:53;18.10;99.90
45339;DHT22;31071;51.478;5.710;2023-07-22T08:00:21;18.00;99.90
45339;DHT22;31071;51.478;5.710;2023-07-22T08:02:47;17.90;99.90
45339;DHT22;31071;51.478;5.710;2023-07-22T08:05:13;18.00;99.90
45339;DHT22;31071;51.478;5.710;2023-07-22T08:07:39;17.90;99.90
45339;DHT22;31071;51.478;5.710;2023-07-22T08:10:05;19.30;99.90
45339;DHT22;31071;51.478;5.710;2023-07-22T08:12:32;18.20;99.90
45339;DHT22;31071;51.478;5.710;2023-07-22T08:14:59;17.90;99.90
45339;DHT22;31071;51.478;5.710;2023-07-22T08:17:24;18.40;99.90
45339;DHT22;31071;51.478;5.710;2023-07-22T08:19:51;18.70;99.90
45339;DHT22;31071;51.478;5.710;2023-07-22T08:22:16;19.00;99.90
45339;DHT22;31071;51.478;5.710;2023-07-22T08:24:42;18.80;99.90
45339;DHT22;31071;51.478;5.710;2023-07-22T08:27:07;18.90;99.90
45339;DHT22;31071;51.478;5.710;2023-07-22T08:29:34;18.60;99.90
45339;DHT22;31071;51.478;5.710;2023-07-22T08:31:59;18.70;99.90
45339;DHT22;31071;51.478;5.710;2023-07-22T08:34:25;18.80;99.90
45339;DHT22;31071;51.478;5.710;2023-07-22T08:36:51;18.80;99.90
45339;DHT22;31071;51.478;5.710;2023-07-22T08:39:18;19.10;99.90
45339;DHT22;31071;51.478;5.710;2023-07-22T08:41:50;19.20;99.90
45339;DHT22;31071;51.478;5.710;2023-07-22T08:44:19;19.20;99.90
45339;DHT22;31071;51.478;5.710;2023-07-22T08:46:46;19.20;99.90
45339;DHT22;31071;51.478;5.710;2023-07-22T08:49:13;19.00;99.90
45339;DHT22;31071;51.478;5.710;2023-07-22T08:51:40;19.10;99.90
45339;DHT22;31071;51.478;5.710;2023-07-22T08:54:06;19.20;99.90
45339;DHT22;31071;51.478;5.710;2023-07-22T08:56:34;19.40;99.90
45339;DHT22;31071;51.478;5.710;2023-07-22T08:59:00;19.90;99.90
45339;DHT22;31071;51.478;5.710;2023-07-22T09:01:26;20.20;99.90
45339;DHT22;31071;51.478;5.710;2023-07-22T09:03:52;20.60;99.90
45339;DHT22;31071;51.478;5.710;2023-07-22T09:06:20;19.90;99.90
45339;DHT22;31071;51.478;5.710;2023-07-22T09:08:46;20.00;99.90
45339;DHT22;31071;51.478;5.710;2023-07-22T09:11:12;20.20;99.90
45339;DHT22;31071;51.478;5.710;2023-07-22T09:13:38;20.20;99.90
45339;DHT22;31071;51.478;5.710;2023-07-22T09:16:06;20.00;99.90
45339;DHT22;31071;51.478;5.710;2023-07-22T09:18:35;19.50;99.90
45339;DHT22;31071;51.478;5.710;2023-07-22T09:21:00;20.10;99.90
45339;DHT22;31071;51.478;5.710;2023-07-22T09:23:37;20.40;99.10
45339;DHT22;31071;51.478;5.710;2023-07-22T09:26:11;20.40;99.60
45339;DHT22;31071;51.478;5.710;2023-07-22T09:28:56;20.30;99.50
45339;DHT22;31071;51.478;5.710;2023-07-22T09:31:23;20.50;99.40
45339;DHT22;31071;51.478;5.710;2023-07-22T09:33:49;20.60;98.80
45339;DHT22;31071;51.478;5.710;2023-07-22T09:36:16;20.60;98.70
45339;DHT22;31071;51.478;5.710;2023-07-22T09:38:41;20.80;98.30
45339;DHT22;31071;51.478;5.710;2023-07-22T09:41:07;20.70;98.00
45339;DHT22;31071;51.478;5.710;2023-07-22T09:43:38;20.40;98.50
45339;DHT22;31071;51.478;5.710;2023-07-22T09:46:11;20.40;98.60
45339;DHT22;31071;51.478;5.710;2023-07-22T09:48:41;20.70;97.60
45339;DHT22;31071;51.478;5.710;2023-07-22T09:51:14;21.10;96.80
45339;DHT22;31071;51.478;5.710;2023-07-22T09:53:45;21.20;97.10
45339;DHT22;31071;51.478;5.710;2023-07-22T09:56:11;21.10;97.30
45339;DHT22;31071;51.478;5.710;2023-07-22T09:58:36;21.70;97.20
45339;DHT22;31071;51.478;5.710;2023-07-22T10:01:03;22.10;95.90
45339;DHT22;31071;51.478;5.710;2023-07-22T10:03:31;21.80;95.10
45339;DHT22;31071;51.478;5.710;2023-07-22T10:05:59;21.20;95.30
45339;DHT22;31071;51.478;5.710;2023-07-22T10:08:27;20.90;96.10
45339;DHT22;31071;51.478;5.710;2023-07-22T10:10:57;21.00;96.00
45339;DHT22;31071;51.478;5.710;2023-07-22T10:13:25;21.00;95.50
45339;DHT22;31071;51.478;5.710;2023-07-22T10:15:52;20.90;96.20
45339;DHT22;31071;51.478;5.710;2023-07-22T10:18:18;21.40;96.30
45339;DHT22;31071;51.478;5.710;2023-07-22T10:20:46;21.30;96.30
45339;DHT22;31071;51.478;5.710;2023-07-22T10:23:13;20.80;96.30
45339;DHT22;31071;51.478;5.710;2023-07-22T10:25:39;21.10;96.30
45339;DHT22;31071;51.478;5.710;2023-07-22T10:28:06;21.20;95.90
45339;DHT22;31071;51.478;5.710;2023-07-22T10:30:33;21.60;95.80
45339;DHT22;31071;51.478;5.710;2023-07-22T10:32:58;20.90;95.70
45339;DHT22;31071;51.478;5.710;2023-07-22T10:37:56;20.30;96.60
45339;DHT22;31071;51.478;5.710;2023-07-22T10:40:31;20.20;97.00
45339;DHT22;31071;51.478;5.710;2023-07-22T10:43:09;20.30;97.20
45339;DHT22;31071;51.478;5.710;2023-07-22T10:46:13;20.10;96.40
45339;DHT22;31071;51.478;5.710;2023-07-22T10:49:10;22.10;96.70
45339;DHT22;31071;51.478;5.710;2023-07-22T10:51:37;21.30;95.30
45339;DHT22;31071;51.478;5.710;2023-07-22T10:54:03;21.10;95.60
45339;DHT22;31071;51.478;5.710;2023-07-22T10:56:35;21.30;95.40
45339;DHT22;31071;51.478;5.710;2023-07-22T10:59:01;21.50;94.80
45339;DHT22;31071;51.478;5.710;2023-07-22T11:04:14;21.60;93.20
45339;DHT22;31071;51.478;5.710;2023-07-22T11:11:54;21.80;93.20
45339;DHT22;31071;51.478;5.710;2023-07-22T11:14:24;21.80;93.20
45339;DHT22;31071;51.478;5.710;2023-07-22T11:16:50;22.10;92.70
45339;DHT22;31071;51.478;5.710;2023-07-22T11:19:21;22.40;92.10
45339;DHT22;31071;51.478;5.710;2023-07-22T11:21:49;22.70;91.00
45339;DHT22;31071;51.478;5.710;2023-07-22T11:24:16;22.90;90.40
45339;DHT22;31071;51.478;5.710;2023-07-22T11:26:42;24.00;91.00
45339;DHT22;31071;51.478;5.710;2023-07-22T11:29:09;22.40;90.20
45339;DHT22;31071;51.478;5.710;2023-07-22T11:31:40;22.50;89.40
45339;DHT22;31071;51.478;5.710;2023-07-22T11:34:10;24.00;87.20
45339;DHT22;31071;51.478;5.710;2023-07-22T11:36:36;23.50;86.10
45339;DHT22;31071;51.478;5.710;2023-07-22T11:39:06;23.80;85.50
45339;DHT22;31071;51.478;5.710;2023-07-22T11:41:32;24.30;83.00
45339;DHT22;31071;51.478;5.710;2023-07-22T11:43:59;23.50;83.50
45339;DHT22;31071;51.478;5.710;2023-07-22T11:46:25;22.50;83.80
45339;DHT22;31071;51.478;5.710;2023-07-22T11:48:55;25.00;84.30
45339;DHT22;31071;51.478;5.710;2023-07-22T11:51:23;22.50;85.30
45339;DHT22;31071;51.478;5.710;2023-07-22T11:53:50;22.60;86.20
45339;DHT22;31071;51.478;5.710;2023-07-22T11:56:26;22.40;84.80
45339;DHT22;31071;51.478;5.710;2023-07-22T11:58:55;22.10;86.30
45339;DHT22;31071;51.478;5.710;2023-07-22T12:01:22;22.10;87.00
45339;DHT22;31071;51.478;5.710;2023-07-22T12:03:48;23.80;88.80
45339;DHT22;31071;51.478;5.710;2023-07-22T12:06:15;22.60;88.10
45339;DHT22;31071;51.478;5.710;2023-07-22T12:08:46;23.30;86.80
45339;DHT22;31071;51.478;5.710;2023-07-22T12:11:19;24.40;84.10
45339;DHT22;31071;51.478;5.710;2023-07-22T12:13:45;23.50;84.00
45339;DHT22;31071;51.478;5.710;2023-07-22T12:16:12;23.10;83.60
45339;DHT22;31071;51.478;5.710;2023-07-22T12:18:43;22.90;82.60
45339;DHT22;31071;51.478;5.710;2023-07-22T12:21:08;23.30;82.90
45339;DHT22;31071;51.478;5.710;2023-07-22T12:23:35;23.10;83.70
45339;DHT22;31071;51.478;5.710;2023-07-22T12:26:01;25.30;82.60
45339;DHT22;31071;51.478;5.710;2023-07-22T12:28:26;24.30;84.00
45339;DHT22;31071;51.478;5.710;2023-07-22T12:30:52;22.70;82.50
45339;DHT22;31071;51.478;5.710;2023-07-22T12:33:17;24.80;84.60
45339;DHT22;31071;51.478;5.710;2023-07-22T12:35:43;24.30;83.50
45339;DHT22;31071;51.478;5.710;2023-07-22T12:38:09;23.50;82.00
45339;DHT22;31071;51.478;5.710;2023-07-22T12:40:34;24.40;84.20
45339;DHT22;31071;51.478;5.710;2023-07-22T12:43:00;25.00;82.20
45339;DHT22;31071;51.478;5.710;2023-07-22T12:45:25;22.50;80.70
45339;DHT22;31071;51.478;5.710;2023-07-22T12:47:51;22.80;81.50
45339;DHT22;31071;51.478;5.710;2023-07-22T12:50:16;23.10;81.50
45339;DHT22;31071;51.478;5.710;2023-07-22T12:52:42;22.60;81.30
45339;DHT22;31071;51.478;5.710;2023-07-22T12:55:07;22.90;79.60
45339;DHT22;31071;51.478;5.710;2023-07-22T12:57:33;22.90;80.20
45339;DHT22;31071;51.478;5.710;2023-07-22T12:59:59;22.80;80.20
45339;DHT22;31071;51.478;5.710;2023-07-22T13:02:24;24.60;82.90
45339;DHT22;31071;51.478;5.710;2023-07-22T13:04:51;22.70;81.00
45339;DHT22;31071;51.478;5.710;2023-07-22T13:07:16;23.70;81.00
45339;DHT22;31071;51.478;5.710;2023-07-22T13:09:42;24.00;78.50
45339;DHT22;31071;51.478;5.710;2023-07-22T13:12:09;24.20;76.70
45339;DHT22;31071;51.478;5.710;2023-07-22T13:14:34;24.00;76.70
45339;DHT22;31071;51.478;5.710;2023-07-22T13:17:00;23.90;76.80
45339;DHT22;31071;51.478;5.710;2023-07-22T13:19:25;23.90;77.10
45339;DHT22;31071;51.478;5.710;2023-07-22T13:21:51;24.60;76.00
45339;DHT22;31071;51.478;5.710;2023-07-22T13:24:16;25.80;73.00
45339;DHT22;31071;51.478;5.710;2023-07-22T13:26:42;25.10;72.90
45339;DHT22;31071;51.478;5.710;2023-07-22T13:29:08;24.80;72.60
45339;DHT22;31071;51.478;5.710;2023-07-22T13:31:34;24.70;73.30
45339;DHT22;31071;51.478;5.710;2023-07-22T13:33:59;24.30;72.80
45339;DHT22;31071;51.478;5.710;2023-07-22T13:36:25;24.00;73.30
45339;DHT22;31071;51.478;5.710;2023-07-22T13:38:50;24.00;72.70
45339;DHT22;31071;51.478;5.710;2023-07-22T13:41:16;25.00;72.00
45339;DHT22;31071;51.478;5.710;2023-07-22T13:43:41;27.70;71.30
45339;DHT22;31071;51.478;5.710;2023-07-22T13:46:07;25.90;69.10
45339;DHT22;31071;51.478;5.710;2023-07-22T13:48:34;26.30;69.30
45339;DHT22;31071;51.478;5.710;2023-07-22T13:50:59;25.10;69.60
45339;DHT22;31071;51.478;5.710;2023-07-22T13:53:25;24.50;70.20
45339;DHT22;31071;51.478;5.710;2023-07-22T13:55:50;23.30;71.50
45339;DHT22;31071;51.478;5.710;2023-07-22T13:58:16;23.30;73.10
45339;DHT22;31071;51.478;5.710;2023-07-22T14:00:41;24.70;71.70
45339;DHT22;31071;51.478;5.710;2023-07-22T14:03:07;26.50;66.50
45339;DHT22;31071;51.478;5.710;2023-07-22T14:05:32;26.80;64.00
45339;DHT22;31071;51.478;5.710;2023-07-22T14:07:58;26.10;64.20
45339;DHT22;31071;51.478;5.710;2023-07-22T14:10:23;26.00;65.30
45339;DHT22;31071;51.478;5.710;2023-07-22T14:12:49;25.20;65.70
45339;DHT22;31071;51.478;5.710;2023-07-22T14:15:14;24.60;66.80
45339;DHT22;31071;51.478;5.710;2023-07-22T14:17:40;26.20;67.30
45339;DHT22;31071;51.478;5.710;2023-07-22T14:20:06;26.50;63.90
45339;DHT22;31071;51.478;5.710;2023-07-22T14:22:32;26.60;61.40
45339;DHT22;31071;51.478;5.710;2023-07-22T14:24:58;26.20;61.30
45339;DHT22;31071;51.478;5.710;2023-07-22T14:27:23;25.30;63.30
45339;DHT22;31071;51.478;5.710;2023-07-22T14:29:49;25.30;64.40
45339;DHT22;31071;51.478;5.710;2023-07-22T14:32:14;26.60;67.00
45339;DHT22;31071;51.478;5.710;2023-07-22T14:34:42;24.40;65.70
45339;DHT22;31071;51.478;5.710;2023-07-22T14:37:07;25.20;66.40
45339;DHT22;31071;51.478;5.710;2023-07-22T14:39:35;26.10;66.90
45339;DHT22;31071;51.478;5.710;2023-07-22T14:42:01;24.10;64.80
45339;DHT22;31071;51.478;5.710;2023-07-22T14:44:26;25.20;64.00
45339;DHT22;31071;51.478;5.710;2023-07-22T14:46:52;25.30;64.50
45339;DHT22;31071;51.478;5.710;2023-07-22T14:49:17;24.60;65.30
45339;DHT22;31071;51.478;5.710;2023-07-22T14:51:43;24.00;66.80
45339;DHT22;31071;51.478;5.710;2023-07-22T14:54:08;24.00;66.50
45339;DHT22;31071;51.478;5.710;2023-07-22T14:56:34;23.80;67.20
45339;DHT22;31071;51.478;5.710;2023-07-22T14:59:00;23.60;67.40
45339;DHT22;31071;51.478;5.710;2023-07-22T15:01:26;23.40;67.70
45339;DHT22;31071;51.478;5.710;2023-07-22T15:03:51;24.60;66.70
45339;DHT22;31071;51.478;5.710;2023-07-22T15:06:17;22.40;65.40
45339;DHT22;31071;51.478;5.710;2023-07-22T15:08:43;25.90;66.80
45339;DHT22;31071;51.478;5.710;2023-07-22T15:11:08;25.10;66.50
45339;DHT22;31071;51.478;5.710;2023-07-22T15:13:34;25.00;67.40
45339;DHT22;31071;51.478;5.710;2023-07-22T15:16:00;24.20;66.40
45339;DHT22;31071;51.478;5.710;2023-07-22T15:18:25;24.20;66.70
45339;DHT22;31071;51.478;5.710;2023-07-22T15:20:51;24.40;68.00
45339;DHT22;31071;51.478;5.710;2023-07-22T15:23:17;23.90;67.40
45339;DHT22;31071;51.478;5.710;2023-07-22T15:25:43;25.00;68.00
45339;DHT22;31071;51.478;5.710;2023-07-22T15:28:09;23.20;67.00
45339;DHT22;31071;51.478;5.710;2023-07-22T15:30:34;25.00;69.00
45339;DHT22;31071;51.478;5.710;2023-07-22T15:33:00;23.70;69.10
45339;DHT22;31071;51.478;5.710;2023-07-22T15:35:25;24.70;70.20
45339;DHT22;31071;51.478;5.710;2023-07-22T15:37:51;23.20;68.40
45339;DHT22;31071;51.478;5.710;2023-07-22T15:40:18;23.40;68.10
45339;DHT22;31071;51.478;5.710;2023-07-22T15:42:44;23.50;67.40
45339;DHT22;31071;51.478;5.710;2023-07-22T15:45:09;23.30;67.30
45339;DHT22;31071;51.478;5.710;2023-07-22T15:47:35;23.20;68.20
45339;DHT22;31071;51.478;5.710;2023-07-22T15:50:01;23.30;67.40